createdAt,value
2022-12-03T00:00:12.805Z,23.27
2022-12-03T00:02:40.316Z,28.27
2022-12-03T00:05:07.586Z,18.60
2022-12-03T00:07:34.303Z,23.00
2022-12-03T00:10:00.924Z,22.40
2022-12-03T00:12:27.524Z,21.40
2022-12-03T00:14:54.363Z,20.73
2022-12-03T00:17:21.214Z,22.07
2022-12-03T00:19:48.215Z,23.03
2022-12-03T00:22:14.856Z,21.37
2022-12-03T00:24:41.490Z,23.23
2022-12-03T00:27:08.148Z,22.80
2022-12-03T00:29:34.767Z,21.13
2022-12-03T00:32:01.575Z,26.10
2022-12-03T00:34:28.165Z,25.13
2022-12-03T00:36:54.773Z,19.57
2022-12-03T00:39:21.387Z,23.17
2022-12-03T00:41:48.004Z,22.83
2022-12-03T00:44:14.603Z,21.50
2022-12-03T00:46:41.364Z,22.67
2022-12-03T00:49:07.986Z,25.13
2022-12-03T00:51:35.767Z,28.67
2022-12-03T00:54:02.550Z,30.20
2022-12-03T00:56:29.182Z,22.57
2022-12-03T00:58:55.863Z,22.73
2022-12-03T01:01:22.572Z,23.23
2022-12-03T01:03:49.175Z,24.47
2022-12-03T01:06:15.869Z,23.97
2022-12-03T01:08:42.516Z,18.37
2022-12-03T01:11:29.096Z,41.90
2022-12-03T01:13:55.728Z,32.47
2022-12-03T01:16:22.452Z,22.70
2022-12-03T01:18:52.252Z,24.50
2022-12-03T01:21:19.650Z,23.67
2022-12-03T01:23:46.558Z,30.07
2022-12-03T01:26:13.353Z,22.23
2022-12-03T01:28:41.920Z,40.37
2022-12-03T01:31:28.205Z,25.87
2022-12-03T01:33:55.224Z,25.50
2022-12-03T01:36:22.028Z,28.10
2022-12-03T01:38:48.923Z,27.83
2022-12-03T01:41:18.037Z,26.50
2022-12-03T01:43:45.160Z,30.87
2022-12-03T01:46:16.357Z,22.57
2022-12-03T01:48:43.336Z,29.93
2022-12-03T01:51:10.007Z,32.07
2022-12-03T01:53:36.704Z,26.57
2022-12-03T01:56:03.463Z,24.73
2022-12-03T01:58:30.381Z,25.53
2022-12-03T02:01:06.486Z,31.30
2022-12-03T02:03:33.148Z,28.50
2022-12-03T02:05:59.825Z,31.63
2022-12-03T02:08:30.741Z,44.73
2022-12-03T02:11:15.610Z,26.23
2022-12-03T02:13:42.907Z,31.20
2022-12-03T02:16:09.732Z,33.70
2022-12-03T02:18:36.618Z,25.50
2022-12-03T02:21:20.275Z,28.17
2022-12-03T02:23:46.816Z,25.17
2022-12-03T02:26:13.469Z,28.13
2022-12-03T02:28:40.169Z,26.67
2022-12-03T02:31:07.299Z,29.53
2022-12-03T02:33:34.036Z,29.20
2022-12-03T02:36:03.860Z,34.07
2022-12-03T02:38:33.031Z,28.20
2022-12-03T02:41:07.142Z,27.37
2022-12-03T02:43:33.797Z,31.30
2022-12-03T02:46:02.509Z,30.53
2022-12-03T02:48:38.626Z,23.30
2022-12-03T02:51:08.665Z,30.63
2022-12-03T02:53:42.270Z,33.70
2022-12-03T02:56:10.792Z,30.00
2022-12-03T02:58:38.487Z,34.27
2022-12-03T03:01:05.524Z,36.20
2022-12-03T03:03:32.947Z,28.00
2022-12-03T03:06:02.536Z,30.23
2022-12-03T03:08:30.084Z,24.87
2022-12-03T03:11:00.329Z,33.67
2022-12-03T03:13:27.508Z,29.03
2022-12-03T03:15:54.192Z,30.17
2022-12-03T03:18:20.869Z,27.10
2022-12-03T03:20:47.577Z,31.13
2022-12-03T03:23:23.160Z,29.23
2022-12-03T03:25:58.713Z,26.90
2022-12-03T03:28:26.907Z,26.37
2022-12-03T03:30:53.896Z,29.90
2022-12-03T03:33:21.011Z,32.00
2022-12-03T03:35:49.035Z,23.17
2022-12-03T03:38:18.425Z,33.60
2022-12-03T03:40:45.677Z,24.27
2022-12-03T03:43:12.884Z,31.30
2022-12-03T03:45:39.663Z,28.17
2022-12-03T03:48:06.888Z,31.23
2022-12-03T03:50:33.863Z,29.30
2022-12-03T03:53:02.808Z,30.13
2022-12-03T03:55:30.494Z,31.37
2022-12-03T03:57:57.240Z,27.83
2022-12-03T04:00:24.954Z,26.37
2022-12-03T04:02:53.064Z,26.53
2022-12-03T04:05:22.241Z,32.77
2022-12-03T04:07:48.998Z,30.07
2022-12-03T04:10:38.576Z,31.00
2022-12-03T04:13:05.827Z,26.47
2022-12-03T04:15:32.449Z,31.73
2022-12-03T04:18:34.811Z,31.03
2022-12-03T04:21:20.124Z,33.20
2022-12-03T04:23:46.757Z,30.73
2022-12-03T04:26:31.896Z,26.33
2022-12-03T04:28:58.660Z,33.37
2022-12-03T04:31:43.844Z,32.90
2022-12-03T04:34:29.289Z,27.13
2022-12-03T04:36:55.914Z,27.00
2022-12-03T04:39:22.729Z,29.27
2022-12-03T04:41:49.416Z,27.40
2022-12-03T04:44:35.713Z,28.73
2022-12-03T04:47:05.077Z,32.53
2022-12-03T04:49:32.461Z,34.80
2022-12-03T04:51:59.686Z,37.00
2022-12-03T04:54:27.538Z,27.07
2022-12-03T04:56:54.161Z,26.97
2022-12-03T04:59:20.867Z,31.50
2022-12-03T05:01:47.629Z,29.67
2022-12-03T05:04:15.674Z,34.33
2022-12-03T05:06:42.993Z,32.87
2022-12-03T05:09:10.245Z,34.27
2022-12-03T05:11:36.940Z,34.47
2022-12-03T05:14:03.750Z,33.00
2022-12-03T05:16:30.433Z,37.60
2022-12-03T05:18:57.121Z,31.20
2022-12-03T05:21:23.857Z,30.33
2022-12-03T05:23:50.630Z,35.27
2022-12-03T05:26:17.382Z,30.00
2022-12-03T05:28:44.237Z,30.87
2022-12-03T05:31:11.075Z,27.73
2022-12-03T05:33:43.794Z,32.50
2022-12-03T05:36:11.328Z,38.57
2022-12-03T05:38:37.988Z,26.23
2022-12-03T05:41:24.743Z,33.93
2022-12-03T05:43:51.468Z,32.77
2022-12-03T05:46:18.427Z,37.10
2022-12-03T05:48:45.214Z,31.63
2022-12-03T05:51:11.961Z,29.90
2022-12-03T05:53:38.591Z,28.97
2022-12-03T05:56:05.626Z,33.40
2022-12-03T05:58:32.366Z,33.80
2022-12-03T06:00:58.969Z,34.33
2022-12-03T06:03:25.656Z,32.23
2022-12-03T06:05:52.342Z,31.60
2022-12-03T06:08:19.027Z,30.83
2022-12-03T06:10:45.759Z,39.73
2022-12-03T06:13:12.412Z,27.37
2022-12-03T06:15:43.759Z,35.00
2022-12-03T06:18:11.069Z,34.53
2022-12-03T06:20:37.864Z,26.67
2022-12-03T06:23:04.531Z,28.73
2022-12-03T06:25:31.148Z,33.37
2022-12-03T06:27:57.782Z,29.27
2022-12-03T06:30:24.381Z,25.27
2022-12-03T06:32:51.025Z,22.40
2022-12-03T06:35:17.683Z,35.97
2022-12-03T06:37:44.327Z,34.30
2022-12-03T06:40:11.612Z,25.70
2022-12-03T06:42:38.201Z,27.67
2022-12-03T06:45:05.304Z,30.67
2022-12-03T06:47:31.921Z,31.03
2022-12-03T06:49:58.542Z,29.57
2022-12-03T06:52:25.153Z,23.73
2022-12-03T06:54:52.141Z,37.67
2022-12-03T06:57:19.135Z,29.20
2022-12-03T06:59:45.793Z,27.43
2022-12-03T07:02:12.972Z,29.47
2022-12-03T07:04:43.392Z,29.83
2022-12-03T07:07:12.891Z,34.60
2022-12-03T07:09:39.962Z,26.60
2022-12-03T07:12:06.683Z,44.93
2022-12-03T07:14:33.406Z,32.80
2022-12-03T07:17:00.017Z,33.83
2022-12-03T07:19:32.372Z,28.87
2022-12-03T07:21:59.705Z,32.50
2022-12-03T07:24:26.440Z,32.83
2022-12-03T07:26:53.081Z,32.10
2022-12-03T07:29:19.769Z,31.07
2022-12-03T07:31:46.570Z,28.77
2022-12-03T07:34:13.281Z,29.37
2022-12-03T07:36:39.918Z,34.20
2022-12-03T07:39:06.596Z,37.27
2022-12-03T07:41:33.381Z,29.20
2022-12-03T07:44:00.057Z,35.63
2022-12-03T07:46:26.852Z,31.90
2022-12-03T07:48:53.646Z,30.20
2022-12-03T07:51:20.291Z,40.40
2022-12-03T07:53:46.944Z,35.30
2022-12-03T07:56:13.563Z,36.40
2022-12-03T07:58:40.139Z,34.43
2022-12-03T08:01:06.882Z,32.13
2022-12-03T08:03:33.608Z,32.53
2022-12-03T08:06:00.360Z,32.47
2022-12-03T08:08:27.068Z,39.43
2022-12-03T08:10:53.731Z,30.50
2022-12-03T08:13:20.339Z,31.77
2022-12-03T08:15:47.425Z,38.83
2022-12-03T08:18:20.264Z,37.57
2022-12-03T08:20:49.284Z,36.17
2022-12-03T08:23:21.603Z,32.00
2022-12-03T08:25:49.673Z,33.20
2022-12-03T08:28:26.507Z,35.80
2022-12-03T08:31:01.319Z,32.37
2022-12-03T08:33:36.353Z,30.30
2022-12-03T08:36:22.429Z,30.70
2022-12-03T08:38:52.025Z,32.20
2022-12-03T08:41:40.455Z,33.83
2022-12-03T08:44:27.578Z,38.83
2022-12-03T08:47:09.319Z,33.23
2022-12-03T08:49:36.766Z,31.63
2022-12-03T08:52:13.345Z,33.63
2022-12-03T08:54:40.028Z,33.90
2022-12-03T08:57:29.730Z,32.27
2022-12-03T09:00:14.524Z,28.10
2022-12-03T09:02:49.160Z,32.67
2022-12-03T09:05:25.879Z,32.73
2022-12-03T09:07:52.615Z,37.37
2022-12-03T09:10:19.235Z,38.03
2022-12-03T09:12:45.812Z,29.47
2022-12-03T09:15:12.618Z,34.07
2022-12-03T09:17:39.514Z,36.17
2022-12-03T09:20:06.935Z,29.90
2022-12-03T09:22:33.590Z,28.63
2022-12-03T09:25:00.356Z,35.23
2022-12-03T09:27:27.025Z,39.87
2022-12-03T09:29:53.760Z,35.40
2022-12-03T09:32:20.575Z,42.70
2022-12-03T09:34:47.348Z,38.07
2022-12-03T09:37:13.966Z,28.17
2022-12-03T09:39:40.670Z,31.73
2022-12-03T09:42:07.833Z,33.70
2022-12-03T09:44:35.314Z,29.67
2022-12-03T09:47:04.593Z,34.87
2022-12-03T09:49:32.929Z,37.17
2022-12-03T09:52:02.680Z,35.93
2022-12-03T09:54:30.582Z,28.43
2022-12-03T09:56:59.550Z,35.57
2022-12-03T09:59:35.373Z,33.30
2022-12-03T10:02:02.673Z,27.03
2022-12-03T10:04:30.184Z,35.07
2022-12-03T10:06:58.805Z,28.57
2022-12-03T10:09:28.479Z,35.47
2022-12-03T10:11:57.243Z,29.07
2022-12-03T10:14:24.359Z,27.90
2022-12-03T10:16:51.137Z,32.50
2022-12-03T10:19:28.781Z,29.37
2022-12-03T10:21:55.868Z,28.13
2022-12-03T10:24:34.083Z,26.67
2022-12-03T10:27:20.034Z,27.67
2022-12-03T10:29:58.302Z,31.30
2022-12-03T10:32:40.783Z,29.73
2022-12-03T10:35:10.018Z,36.67
2022-12-03T10:37:36.818Z,27.67
2022-12-03T10:40:11.123Z,27.83
2022-12-03T10:42:40.410Z,33.07
2022-12-03T10:45:20.260Z,29.90
2022-12-03T10:48:11.563Z,24.00
2022-12-03T10:50:46.616Z,25.47
2022-12-03T10:53:13.291Z,25.57
2022-12-03T10:55:42.600Z,25.00
2022-12-03T10:58:19.612Z,35.70
2022-12-03T11:00:46.541Z,28.43
2022-12-03T11:03:19.953Z,31.57
2022-12-03T11:05:47.045Z,28.30
2022-12-03T11:08:23.236Z,22.43
2022-12-03T11:11:20.348Z,27.77
2022-12-03T11:13:53.421Z,29.73
2022-12-03T11:16:41.805Z,33.17
2022-12-03T11:19:38.448Z,30.50
2022-12-03T11:22:05.163Z,27.63
2022-12-03T11:24:33.912Z,23.13
2022-12-03T11:27:00.499Z,30.23
2022-12-03T11:29:59.353Z,32.70
2022-12-03T11:32:46.254Z,26.47
2022-12-03T11:35:36.137Z,23.73
2022-12-03T11:38:36.628Z,27.67
2022-12-03T11:41:22.022Z,25.87
2022-12-03T11:43:57.661Z,27.23
2022-12-03T11:46:36.635Z,30.90
2022-12-03T11:49:22.013Z,28.83
2022-12-03T11:51:49.305Z,30.33
2022-12-03T11:54:17.688Z,24.20
2022-12-03T11:56:49.294Z,26.03
2022-12-03T11:59:19.909Z,27.87
2022-12-03T12:01:53.673Z,27.57
2022-12-03T12:04:42.937Z,29.60
2022-12-03T12:07:09.723Z,27.50
2022-12-03T12:09:55.254Z,26.77
2022-12-03T12:12:39.671Z,30.73
2022-12-03T12:15:41.633Z,27.23
2022-12-03T12:18:36.719Z,29.60
2022-12-03T12:21:41.513Z,31.70
2022-12-03T12:24:40.581Z,25.60
2022-12-03T12:27:29.429Z,28.60
2022-12-03T12:29:58.491Z,25.23
2022-12-03T12:32:43.607Z,31.13
2022-12-03T12:35:25.716Z,25.13
2022-12-03T12:37:58.931Z,25.57
2022-12-03T12:40:30.314Z,25.60
2022-12-03T12:43:09.958Z,26.73
2022-12-03T12:45:41.999Z,28.03
2022-12-03T12:48:14.816Z,27.07
2022-12-03T12:50:43.609Z,32.27
2022-12-03T12:53:30.966Z,30.77
2022-12-03T12:56:25.127Z,25.13
2022-12-03T12:58:53.194Z,34.33
2022-12-03T13:01:27.118Z,32.50
2022-12-03T13:03:54.497Z,26.37
2022-12-03T13:06:30.835Z,27.53
2022-12-03T13:09:21.422Z,24.37
2022-12-03T13:11:59.840Z,24.47
2022-12-03T13:14:31.848Z,30.10
2022-12-03T13:17:01.522Z,29.03
2022-12-03T13:19:30.635Z,28.90
2022-12-03T13:22:00.872Z,24.70
2022-12-03T13:24:35.680Z,31.10
2022-12-03T13:27:29.479Z,23.30
2022-12-03T13:30:00.806Z,25.83
2022-12-03T13:32:32.782Z,31.30
2022-12-03T13:35:07.089Z,26.60
2022-12-03T13:37:33.980Z,30.17
2022-12-03T13:40:18.321Z,27.43
2022-12-03T13:42:48.544Z,28.77
2022-12-03T13:45:15.162Z,27.27
2022-12-03T13:47:47.262Z,31.50
2022-12-03T13:50:44.533Z,27.63
2022-12-03T13:53:11.141Z,24.00
2022-12-03T13:55:46.301Z,32.50
2022-12-03T13:58:13.092Z,24.17
2022-12-03T14:00:39.895Z,27.13
2022-12-03T14:03:06.586Z,26.87
2022-12-03T14:05:33.323Z,44.20
2022-12-03T14:08:02.303Z,28.37
2022-12-03T14:10:29.741Z,23.00
2022-12-03T14:12:57.124Z,23.27
2022-12-03T14:15:26.186Z,24.17
2022-12-03T14:17:52.988Z,27.13
2022-12-03T14:20:20.277Z,28.33
2022-12-03T14:22:47.037Z,30.37
2022-12-03T14:25:13.770Z,27.63
2022-12-03T14:27:40.515Z,19.87
2022-12-03T14:30:07.991Z,23.57
2022-12-03T14:32:34.750Z,27.40
2022-12-03T14:35:06.561Z,28.90
2022-12-03T14:37:35.108Z,28.50
2022-12-03T14:40:03.650Z,25.90
2022-12-03T14:42:30.277Z,28.43
2022-12-03T14:44:57.662Z,27.83
2022-12-03T14:47:24.431Z,27.30
2022-12-03T14:49:52.281Z,30.23
2022-12-03T14:52:19.603Z,27.43
2022-12-03T14:54:46.446Z,27.77
2022-12-03T14:57:15.143Z,25.43
2022-12-03T14:59:43.317Z,28.87
2022-12-03T15:02:11.682Z,25.60
2022-12-03T15:04:39.813Z,27.60
2022-12-03T15:07:06.934Z,21.53
2022-12-03T15:09:34.014Z,28.70
2022-12-03T15:12:00.817Z,26.23
2022-12-03T15:14:27.960Z,24.87
2022-12-03T15:16:54.769Z,26.77
2022-12-03T15:19:21.419Z,25.40
2022-12-03T15:21:48.329Z,24.40
2022-12-03T15:24:14.944Z,22.30
2022-12-03T15:26:41.610Z,25.87
2022-12-03T15:29:08.233Z,35.10
2022-12-03T15:31:34.981Z,24.73
2022-12-03T15:34:01.601Z,22.90
2022-12-03T15:36:28.278Z,25.00
2022-12-03T15:38:54.851Z,29.20
2022-12-03T15:41:21.858Z,26.47
2022-12-03T15:43:49.225Z,23.77
2022-12-03T15:46:16.197Z,20.97
2022-12-03T15:48:42.933Z,23.30
2022-12-03T15:51:09.617Z,28.03
2022-12-03T15:53:36.286Z,30.63
2022-12-03T15:56:03.054Z,27.70
2022-12-03T15:58:29.678Z,23.73
2022-12-03T16:00:56.380Z,20.77
2022-12-03T16:03:23.292Z,19.23
2022-12-03T16:05:49.951Z,29.60
2022-12-03T16:08:16.659Z,31.20
2022-12-03T16:10:43.374Z,20.90
2022-12-03T16:13:10.058Z,25.77
2022-12-03T16:15:36.869Z,21.67
2022-12-03T16:18:03.761Z,21.13
2022-12-03T16:20:30.405Z,18.37
2022-12-03T16:22:57.123Z,21.07
2022-12-03T16:25:23.797Z,16.90
2022-12-03T16:27:50.584Z,20.23
2022-12-03T16:30:17.841Z,17.47
2022-12-03T16:32:44.467Z,19.27
2022-12-03T16:35:11.136Z,25.73
2022-12-03T16:37:37.734Z,17.97
2022-12-03T16:40:04.902Z,22.27
2022-12-03T16:42:31.559Z,16.20
2022-12-03T16:45:18.268Z,20.80
2022-12-03T16:47:44.892Z,24.20
2022-12-03T16:50:17.934Z,20.50
2022-12-03T16:52:47.583Z,21.30
2022-12-03T16:55:14.243Z,25.17
2022-12-03T16:57:40.861Z,23.43
2022-12-03T17:00:08.300Z,22.97
2022-12-03T17:02:34.906Z,21.60
2022-12-03T17:05:02.444Z,20.83
2022-12-03T17:07:29.141Z,26.00
2022-12-03T17:09:55.979Z,20.50
2022-12-03T17:12:22.873Z,21.80
2022-12-03T17:14:49.588Z,20.37
2022-12-03T17:17:16.221Z,24.37
2022-12-03T17:19:42.830Z,24.23
2022-12-03T17:22:09.500Z,27.13
2022-12-03T17:24:36.143Z,23.40
2022-12-03T17:27:05.880Z,26.40
2022-12-03T17:29:32.731Z,21.80
2022-12-03T17:31:59.419Z,21.97
2022-12-03T17:34:26.156Z,21.33
2022-12-03T17:36:52.971Z,25.47
2022-12-03T17:39:19.640Z,24.30
2022-12-03T17:41:46.240Z,26.90
2022-12-03T17:44:19.419Z,24.57
2022-12-03T17:46:47.811Z,19.87
2022-12-03T17:49:14.510Z,27.83
2022-12-03T17:51:41.141Z,27.73
2022-12-03T17:54:07.740Z,26.07
2022-12-03T17:56:34.458Z,27.90
2022-12-03T17:59:01.043Z,25.80
2022-12-03T18:01:27.798Z,27.47
2022-12-03T18:03:54.502Z,24.93
2022-12-03T18:06:21.183Z,26.00
2022-12-03T18:08:47.821Z,27.37
2022-12-03T18:11:14.525Z,27.10
2022-12-03T18:13:41.166Z,25.23
2022-12-03T18:16:08.136Z,21.97
2022-12-03T18:18:34.764Z,29.47
2022-12-03T18:21:03.811Z,21.50
2022-12-03T18:23:32.045Z,24.77
2022-12-03T18:25:58.912Z,33.23
2022-12-03T18:28:25.843Z,23.63
2022-12-03T18:30:53.087Z,25.23
2022-12-03T18:33:21.478Z,24.20
2022-12-03T18:35:48.135Z,25.50
2022-12-03T18:38:16.543Z,28.33
2022-12-03T18:40:45.364Z,27.67
2022-12-03T18:43:14.423Z,20.10
2022-12-03T18:45:41.975Z,33.13
2022-12-03T18:48:15.829Z,31.20
2022-12-03T18:50:43.635Z,30.07
2022-12-03T18:53:15.319Z,28.67
2022-12-03T18:55:43.697Z,29.40
2022-12-03T18:58:10.359Z,40.33
2022-12-03T19:00:38.173Z,32.47
2022-12-03T19:03:06.275Z,38.60
2022-12-03T19:05:34.253Z,39.03
2022-12-03T19:08:01.994Z,41.80
2022-12-03T19:10:28.902Z,36.97
2022-12-03T19:12:55.563Z,41.17
2022-12-03T19:15:22.806Z,41.90
2022-12-03T19:17:50.541Z,42.77
2022-12-03T19:20:17.196Z,34.13
2022-12-03T19:22:43.984Z,49.03
2022-12-03T19:25:10.625Z,47.60
2022-12-03T19:27:37.311Z,36.20
2022-12-03T19:30:04.527Z,48.30
2022-12-03T19:32:31.188Z,40.00
2022-12-03T19:34:57.920Z,42.10
2022-12-03T19:37:24.526Z,50.70
2022-12-03T19:39:54.288Z,40.67
2022-12-03T19:42:21.221Z,44.17
2022-12-03T19:44:47.815Z,41.40
2022-12-03T19:47:14.451Z,42.17
2022-12-03T19:49:41.074Z,52.43
2022-12-03T19:52:07.801Z,38.40
2022-12-03T19:54:34.492Z,49.00
2022-12-03T19:57:01.116Z,44.90
2022-12-03T19:59:27.762Z,38.23
2022-12-03T20:01:54.516Z,47.27
2022-12-03T20:04:21.271Z,45.63
2022-12-03T20:06:48.319Z,45.77
2022-12-03T20:09:18.269Z,40.93
2022-12-03T20:11:45.875Z,40.03
2022-12-03T20:14:15.636Z,45.77
2022-12-03T20:16:43.103Z,62.00
2022-12-03T20:19:12.402Z,40.63
2022-12-03T20:21:40.110Z,39.87
2022-12-03T20:24:07.900Z,51.03
2022-12-03T20:26:34.695Z,47.57
2022-12-03T20:29:01.795Z,45.07
2022-12-03T20:31:31.052Z,47.70
2022-12-03T20:34:03.275Z,61.17
2022-12-03T20:36:31.545Z,42.00
2022-12-03T20:39:01.099Z,40.10
2022-12-03T20:41:28.631Z,45.30
2022-12-03T20:43:55.696Z,43.93
2022-12-03T20:46:25.710Z,43.93
2022-12-03T20:48:54.069Z,40.43
2022-12-03T20:51:23.195Z,45.97
2022-12-03T20:53:50.180Z,48.30
2022-12-03T20:56:20.439Z,48.83
2022-12-03T20:58:50.693Z,49.13
2022-12-03T21:01:26.300Z,46.07
2022-12-03T21:03:54.982Z,40.83
2022-12-03T21:06:23.082Z,39.70
2022-12-03T21:08:49.968Z,48.30
2022-12-03T21:11:19.165Z,37.13
2022-12-03T21:13:46.619Z,40.77
2022-12-03T21:16:16.754Z,50.90
2022-12-03T21:18:43.999Z,43.37
2022-12-03T21:21:12.162Z,48.20
2022-12-03T21:23:38.974Z,40.40
2022-12-03T21:26:07.161Z,44.30
2022-12-03T21:28:34.047Z,66.10
2022-12-03T21:31:09.104Z,39.70
2022-12-03T21:33:36.187Z,45.63
2022-12-03T21:36:04.607Z,43.10
2022-12-03T21:38:32.841Z,42.37
2022-12-03T21:41:00.855Z,46.77
2022-12-03T21:43:28.099Z,41.00
2022-12-03T21:45:54.998Z,41.27
2022-12-03T21:48:22.222Z,46.47
2022-12-03T21:51:06.690Z,44.73
2022-12-03T21:53:37.946Z,44.37
2022-12-03T21:56:13.627Z,45.87
2022-12-03T21:58:41.248Z,48.60
2022-12-03T22:01:17.036Z,45.00
2022-12-03T22:03:44.311Z,40.13
2022-12-03T22:06:11.760Z,51.63
2022-12-03T22:08:38.750Z,46.27
2022-12-03T22:11:11.454Z,40.93
2022-12-03T22:13:39.216Z,45.13
2022-12-03T22:16:07.990Z,51.43
2022-12-03T22:18:35.105Z,40.40
2022-12-03T22:21:07.082Z,59.47
2022-12-03T22:23:34.513Z,50.00
2022-12-03T22:26:07.015Z,50.30
2022-12-03T22:28:34.608Z,45.87
2022-12-03T22:31:06.688Z,47.90
2022-12-03T22:33:33.781Z,51.23
2022-12-03T22:36:06.696Z,53.40
2022-12-03T22:38:33.861Z,51.23
2022-12-03T22:41:05.155Z,45.80
2022-12-03T22:43:31.805Z,58.20
2022-12-03T22:45:58.477Z,52.90
2022-12-03T22:48:25.384Z,60.47
2022-12-03T22:50:52.824Z,53.57
2022-12-03T22:53:20.267Z,66.90
2022-12-03T22:55:55.474Z,56.20
2022-12-03T22:58:22.835Z,61.30
2022-12-03T23:00:49.602Z,61.50
2022-12-03T23:03:16.311Z,56.40
2022-12-03T23:05:43.132Z,51.20
2022-12-03T23:08:14.056Z,58.23
2022-12-03T23:10:43.608Z,55.60
2022-12-03T23:13:11.166Z,54.63
2022-12-03T23:15:38.222Z,65.03
2022-12-03T23:18:05.049Z,64.50
2022-12-03T23:20:31.721Z,57.20
2022-12-03T23:22:58.342Z,65.83
2022-12-03T23:25:24.942Z,55.30
2022-12-03T23:27:51.627Z,61.73
2022-12-03T23:30:18.286Z,49.00
2022-12-03T23:32:44.973Z,63.87
2022-12-03T23:35:12.706Z,62.17
2022-12-03T23:37:42.489Z,55.97
2022-12-03T23:40:09.744Z,53.30
2022-12-03T23:42:36.420Z,56.83
2022-12-03T23:45:03.683Z,51.17
2022-12-03T23:47:30.464Z,53.57
2022-12-03T23:49:57.460Z,55.97
2022-12-03T23:52:24.485Z,48.60
2022-12-03T23:54:51.101Z,55.77
2022-12-03T23:57:18.350Z,52.93
2022-12-03T23:59:45.059Z,57.50
